sensor_id;sensor_type;location;lat;lon;timestamp;pressure;altitude;pressure_sealevel;temperature;humidity
49979;BME280;35869;50.990;6.962;2022-12-07T00:00:13;101441.25;;;4.71;100.00
49979;BME280;35869;50.990;6.962;2022-12-07T00:05:13;101431.00;;;4.67;100.00
49979;BME280;35869;50.990;6.962;2022-12-07T00:10:14;101437.84;;;4.71;100.00
49979;BME280;35869;50.990;6.962;2022-12-07T00:15:14;101430.06;;;4.74;100.00
49979;BME280;35869;50.990;6.962;2022-12-07T00:20:14;101435.25;;;4.71;100.00
49979;BME280;35869;50.990;6.962;2022-12-07T00:25:27;101424.09;;;4.70;100.00
49979;BME280;35869;50.990;6.962;2022-12-07T00:30:27;101420.69;;;4.67;100.00
49979;BME280;35869;50.990;6.962;2022-12-07T00:35:27;101423.22;;;4.71;100.00
49979;BME280;35869;50.990;6.962;2022-12-07T00:40:28;101419.75;;;4.77;100.00
49979;BME280;35869;50.990;6.962;2022-12-07T00:45:28;101418.91;;;4.75;100.00
49979;BME280;35869;50.990;6.962;2022-12-07T00:50:28;101412.06;;;4.72;100.00
49979;BME280;35869;50.990;6.962;2022-12-07T00:55:33;101412.03;;;4.75;100.00
49979;BME280;35869;50.990;6.962;2022-12-07T01:00:35;101411.19;;;4.73;100.00
49979;BME280;35869;50.990;6.962;2022-12-07T01:05:36;101415.44;;;4.77;100.00
49979;BME280;35869;50.990;6.962;2022-12-07T01:10:36;101414.66;;;4.71;100.00
49979;BME280;35869;50.990;6.962;2022-12-07T01:15:43;101412.91;;;4.76;100.00
49979;BME280;35869;50.990;6.962;2022-12-07T01:20:44;101414.69;;;4.69;100.00
49979;BME280;35869;50.990;6.962;2022-12-07T01:25:44;101416.44;;;4.64;100.00
49979;BME280;35869;50.990;6.962;2022-12-07T01:30:44;101413.81;;;4.70;100.00
49979;BME280;35869;50.990;6.962;2022-12-07T01:35:44;101418.91;;;4.73;100.00
49979;BME280;35869;50.990;6.962;2022-12-07T01:40:45;101418.06;;;4.76;100.00
49979;BME280;35869;50.990;6.962;2022-12-07T01:45:45;101413.72;;;4.81;100.00
49979;BME280;35869;50.990;6.962;2022-12-07T01:50:48;101412.00;;;4.81;100.00
49979;BME280;35869;50.990;6.962;2022-12-07T01:55:51;101407.72;;;4.77;100.00
49979;BME280;35869;50.990;6.962;2022-12-07T02:00:52;101398.38;;;4.66;100.00
49979;BME280;35869;50.990;6.962;2022-12-07T02:05:53;101394.91;;;4.68;100.00
49979;BME280;35869;50.990;6.962;2022-12-07T02:10:54;101398.31;;;4.73;100.00
49979;BME280;35869;50.990;6.962;2022-12-07T02:16:09;101394.91;;;4.68;100.00
49979;BME280;35869;50.990;6.962;2022-12-07T02:21:21;101396.59;;;4.75;100.00
49979;BME280;35869;50.990;6.962;2022-12-07T02:26:43;101385.47;;;4.70;100.00
49979;BME280;35869;50.990;6.962;2022-12-07T02:31:53;101394.88;;;4.74;100.00
49979;BME280;35869;50.990;6.962;2022-12-07T02:36:59;101380.28;;;4.75;100.00
49979;BME280;35869;50.990;6.962;2022-12-07T02:42:12;101381.25;;;4.63;100.00
49979;BME280;35869;50.990;6.962;2022-12-07T02:47:16;101388.91;;;4.68;100.00
49979;BME280;35869;50.990;6.962;2022-12-07T02:52:19;101382.88;;;4.73;100.00
49979;BME280;35869;50.990;6.962;2022-12-07T03:02:54;101388.88;;;4.74;100.00
49979;BME280;35869;50.990;6.962;2022-12-07T03:13:54;101387.16;;;4.76;100.00
49979;BME280;35869;50.990;6.962;2022-12-07T03:19:05;101394.00;;;4.77;100.00
49979;BME280;35869;50.990;6.962;2022-12-07T03:24:27;101389.75;;;4.71;100.00
49979;BME280;35869;50.990;6.962;2022-12-07T03:29:33;101388.88;;;4.74;100.00
49979;BME280;35869;50.990;6.962;2022-12-07T03:45:02;101379.41;;;4.76;100.00
49979;BME280;35869;50.990;6.962;2022-12-07T03:50:29;101383.72;;;4.75;100.00
49979;BME280;35869;50.990;6.962;2022-12-07T03:55:41;101390.63;;;4.70;100.00
49979;BME280;35869;50.990;6.962;2022-12-07T04:00:43;101394.94;;;4.67;100.00
49979;BME280;35869;50.990;6.962;2022-12-07T04:05:44;101393.22;;;4.70;100.00
49979;BME280;35869;50.990;6.962;2022-12-07T04:10:44;101393.22;;;4.70;100.00
49979;BME280;35869;50.990;6.962;2022-12-07T04:15:45;101387.16;;;4.73;100.00
49979;BME280;35869;50.990;6.962;2022-12-07T04:20:45;101395.75;;;4.75;100.00
49979;BME280;35869;50.990;6.962;2022-12-07T04:25:48;101388.88;;;4.74;100.00
49979;BME280;35869;50.990;6.962;2022-12-07T04:30:48;101376.84;;;4.74;100.00
49979;BME280;35869;50.990;6.962;2022-12-07T04:36:04;101381.16;;;4.75;100.00
49979;BME280;35869;50.990;6.962;2022-12-07T04:52:50;101376.00;;;4.72;100.00
49979;BME280;35869;50.990;6.962;2022-12-07T04:58:13;101381.13;;;4.74;100.00
49979;BME280;35869;50.990;6.962;2022-12-07T05:03:13;101373.47;;;4.69;100.00
49979;BME280;35869;50.990;6.962;2022-12-07T05:08:13;101382.06;;;4.70;100.00
49979;BME280;35869;50.990;6.962;2022-12-07T05:13:16;101381.16;;;4.75;100.00
49979;BME280;35869;50.990;6.962;2022-12-07T05:18:20;101376.88;;;4.71;100.00
49979;BME280;35869;50.990;6.962;2022-12-07T05:23:20;101376.00;;;4.72;100.00
49979;BME280;35869;50.990;6.962;2022-12-07T05:28:20;101376.00;;;4.72;100.00
49979;BME280;35869;50.990;6.962;2022-12-07T05:33:36;101388.94;;;4.69;100.00
49979;BME280;35869;50.990;6.962;2022-12-07T05:38:46;101388.06;;;4.70;100.00
49979;BME280;35869;50.990;6.962;2022-12-07T05:44:36;101379.53;;;4.62;100.00
49979;BME280;35869;50.990;6.962;2022-12-07T05:50:04;101368.34;;;4.66;100.00
49979;BME280;35869;50.990;6.962;2022-12-07T05:55:25;101365.00;;;4.57;100.00
49979;BME280;35869;50.990;6.962;2022-12-07T06:00:34;101378.69;;;4.60;100.00
49979;BME280;35869;50.990;6.962;2022-12-07T06:05:34;101379.53;;;4.62;100.00
49979;BME280;35869;50.990;6.962;2022-12-07T06:10:43;101378.72;;;4.57;100.00
49979;BME280;35869;50.990;6.962;2022-12-07T06:15:43;101373.59;;;4.54;100.00
49979;BME280;35869;50.990;6.962;2022-12-07T06:20:55;101373.63;;;4.51;100.00
49979;BME280;35869;50.990;6.962;2022-12-07T06:26:04;101369.38;;;4.47;100.00
49979;BME280;35869;50.990;6.962;2022-12-07T06:41:55;101381.44;;;4.39;100.00
49979;BME280;35869;50.990;6.962;2022-12-07T06:47:27;101390.06;;;4.36;100.00
49979;BME280;35869;50.990;6.962;2022-12-07T06:52:36;101399.47;;;4.39;100.00
49979;BME280;35869;50.990;6.962;2022-12-07T06:57:43;101390.06;;;4.36;100.00
49979;BME280;35869;50.990;6.962;2022-12-07T07:02:43;101389.19;;;4.37;100.00
49979;BME280;35869;50.990;6.962;2022-12-07T07:07:46;101397.75;;;4.38;100.00
49979;BME280;35869;50.990;6.962;2022-12-07T07:12:49;101390.97;;;4.31;100.00
49979;BME280;35869;50.990;6.962;2022-12-07T07:17:51;101394.41;;;4.30;100.00
49979;BME280;35869;50.990;6.962;2022-12-07T07:22:55;101397.84;;;4.30;100.00
49979;BME280;35869;50.990;6.962;2022-12-07T07:27:57;101398.63;;;4.37;100.00
49979;BME280;35869;50.990;6.962;2022-12-07T07:33:00;101396.09;;;4.31;100.00
49979;BME280;35869;50.990;6.962;2022-12-07T07:38:01;101396.09;;;4.31;100.00
49979;BME280;35869;50.990;6.962;2022-12-07T07:43:02;101395.28;;;4.28;100.00
49979;BME280;35869;50.990;6.962;2022-12-07T07:53:26;101400.41;;;4.27;100.00
49979;BME280;35869;50.990;6.962;2022-12-07T07:58:32;101402.19;;;4.23;100.00
49979;BME280;35869;50.990;6.962;2022-12-07T08:03:32;101416.72;;;4.29;100.00
49979;BME280;35869;50.990;6.962;2022-12-07T08:08:33;101401.22;;;4.35;100.00
49979;BME280;35869;50.990;6.962;2022-12-07T08:13:33;101413.25;;;4.35;100.00
49979;BME280;35869;50.990;6.962;2022-12-07T08:18:38;101408.09;;;4.33;100.00
49979;BME280;35869;50.990;6.962;2022-12-07T08:23:38;101417.53;;;4.36;100.00
49979;BME280;35869;50.990;6.962;2022-12-07T08:28:39;101420.97;;;4.35;100.00
49979;BME280;35869;50.990;6.962;2022-12-07T08:33:40;101419.22;;;4.34;100.00
49979;BME280;35869;50.990;6.962;2022-12-07T08:38:41;101419.22;;;4.37;100.00
49979;BME280;35869;50.990;6.962;2022-12-07T08:43:42;101425.25;;;4.36;100.00
49979;BME280;35869;50.990;6.962;2022-12-07T08:48:46;101426.03;;;4.44;100.00
49979;BME280;35869;50.990;6.962;2022-12-07T08:53:49;101418.31;;;4.44;100.00
49979;BME280;35869;50.990;6.962;2022-12-07T08:58:50;101418.31;;;4.44;100.00
49979;BME280;35869;50.990;6.962;2022-12-07T09:03:50;101420.88;;;4.44;100.00
49979;BME280;35869;50.990;6.962;2022-12-07T09:43:34;101424.97;;;4.71;100.00
49979;BME280;35869;50.990;6.962;2022-12-07T09:54:48;101419.75;;;4.77;100.00
49979;BME280;35869;50.990;6.962;2022-12-07T10:05:54;101407.53;;;4.99;100.00
49979;BME280;35869;50.990;6.962;2022-12-07T10:11:23;101403.25;;;4.95;100.00
49979;BME280;35869;50.990;6.962;2022-12-07T10:39:22;101390.13;;;5.18;100.00
49979;BME280;35869;50.990;6.962;2022-12-07T11:08:05;101348.72;;;5.34;100.00
49979;BME280;35869;50.990;6.962;2022-12-07T11:30:42;101323.47;;;5.58;100.00
49979;BME280;35869;50.990;6.962;2022-12-07T11:41:06;101306.88;;;5.76;100.00
49979;BME280;35869;50.990;6.962;2022-12-07T11:46:22;101300.81;;;5.78;100.00
49979;BME280;35869;50.990;6.962;2022-12-07T11:51:25;101309.34;;;5.83;100.00
49979;BME280;35869;50.990;6.962;2022-12-07T11:56:27;101300.03;;;5.75;100.00
49979;BME280;35869;50.990;6.962;2022-12-07T12:06:31;101290.31;;;5.91;100.00
49979;BME280;35869;50.990;6.962;2022-12-07T12:23:52;101288.66;;;5.86;100.00
49979;BME280;35869;50.990;6.962;2022-12-07T12:29:16;101289.69;;;5.76;100.00
49979;BME280;35869;50.990;6.962;2022-12-07T13:34:55;101239.91;;;5.70;100.00
49979;BME280;35869;50.990;6.962;2022-12-07T14:08:39;101204.50;;;5.79;100.00
49979;BME280;35869;50.990;6.962;2022-12-07T14:14:29;101198.50;;;5.79;100.00
49979;BME280;35869;50.990;6.962;2022-12-07T15:11:15;101155.72;;;5.67;100.00
49979;BME280;35869;50.990;6.962;2022-12-07T15:16:19;101162.56;;;5.68;100.00
49979;BME280;35869;50.990;6.962;2022-12-07T15:21:20;101155.41;;;5.34;100.00
49979;BME280;35869;50.990;6.962;2022-12-07T15:26:20;101170.59;;;5.50;100.00
49979;BME280;35869;50.990;6.962;2022-12-07T15:31:39;101164.53;;;5.54;100.00
49979;BME280;35869;50.990;6.962;2022-12-07T15:42:37;101154.31;;;5.48;100.00
49979;BME280;35869;50.990;6.962;2022-12-07T15:48:04;101147.47;;;5.47;100.00
49979;BME280;35869;50.990;6.962;2022-12-07T15:53:50;101142.44;;;5.38;100.00
49979;BME280;35869;50.990;6.962;2022-12-07T16:15:57;101151.47;;;5.11;100.00
49979;BME280;35869;50.990;6.962;2022-12-07T16:21:24;101146.41;;;5.03;100.00
49979;BME280;35869;50.990;6.962;2022-12-07T16:26:26;101145.63;;;4.98;100.00
49979;BME280;35869;50.990;6.962;2022-12-07T16:31:28;101146.63;;;4.89;100.00
49979;BME280;35869;50.990;6.962;2022-12-07T16:36:28;101144.94;;;4.85;100.00
49979;BME280;35869;50.990;6.962;2022-12-07T16:41:30;101144.28;;;4.72;100.00
49979;BME280;35869;50.990;6.962;2022-12-07T16:46:37;101141.69;;;4.72;100.00
49979;BME280;35869;50.990;6.962;2022-12-07T16:51:40;101148.59;;;4.70;100.00
49979;BME280;35869;50.990;6.962;2022-12-07T16:56:41;101135.81;;;4.64;100.00
49979;BME280;35869;50.990;6.962;2022-12-07T17:01:42;101130.63;;;4.66;100.00
49979;BME280;35869;50.990;6.962;2022-12-07T17:06:42;101124.63;;;4.65;100.00
49979;BME280;35869;50.990;6.962;2022-12-07T17:11:44;101124.66;;;4.64;100.00
49979;BME280;35869;50.990;6.962;2022-12-07T17:16:44;101114.38;;;4.62;100.00
49979;BME280;35869;50.990;6.962;2022-12-07T17:21:44;101119.56;;;4.59;100.00
49979;BME280;35869;50.990;6.962;2022-12-07T17:26:45;101117.88;;;4.58;100.00
49979;BME280;35869;50.990;6.962;2022-12-07T17:31:47;101114.41;;;4.59;100.00
49979;BME280;35869;50.990;6.962;2022-12-07T17:36:47;101110.16;;;4.58;100.00
49979;BME280;35869;50.990;6.962;2022-12-07T17:41:50;101097.31;;;4.55;100.00
49979;BME280;35869;50.990;6.962;2022-12-07T17:46:52;101097.28;;;4.58;100.00
49979;BME280;35869;50.990;6.962;2022-12-07T17:51:55;101093.03;;;4.54;100.00
49979;BME280;35869;50.990;6.962;2022-12-07T17:56:55;101084.44;;;4.55;100.00
49979;BME280;35869;50.990;6.962;2022-12-07T18:02:04;101087.88;;;4.54;100.00
49979;BME280;35869;50.990;6.962;2022-12-07T18:07:04;101079.25;;;4.58;100.00
49979;BME280;35869;50.990;6.962;2022-12-07T18:12:05;101073.25;;;4.56;100.00
49979;BME280;35869;50.990;6.962;2022-12-07T18:17:05;101075.00;;;4.54;100.00
49979;BME280;35869;50.990;6.962;2022-12-07T18:22:06;101067.22;;;4.60;100.00
49979;BME280;35869;50.990;6.962;2022-12-07T18:27:06;101060.31;;;4.62;100.00
49979;BME280;35869;50.990;6.962;2022-12-07T18:32:06;101059.53;;;4.55;100.00
49979;BME280;35869;50.990;6.962;2022-12-07T18:37:06;101056.94;;;4.57;100.00
49979;BME280;35869;50.990;6.962;2022-12-07T18:42:07;101057.72;;;4.62;100.00
49979;BME280;35869;50.990;6.962;2022-12-07T18:47:09;101053.50;;;4.60;100.00
49979;BME280;35869;50.990;6.962;2022-12-07T18:52:09;101045.72;;;4.61;100.00
49979;BME280;35869;50.990;6.962;2022-12-07T18:57:10;101050.00;;;4.62;100.00
49979;BME280;35869;50.990;6.962;2022-12-07T19:02:12;101052.56;;;4.65;100.00
49979;BME280;35869;50.990;6.962;2022-12-07T19:07:15;101041.38;;;4.66;100.00
49979;BME280;35869;50.990;6.962;2022-12-07T19:12:16;101041.38;;;4.66;100.00
49979;BME280;35869;50.990;6.962;2022-12-07T19:17:16;101036.19;;;4.69;100.00
49979;BME280;35869;50.990;6.962;2022-12-07T19:22:19;101037.06;;;4.67;100.00
49979;BME280;35869;50.990;6.962;2022-12-07T19:27:20;101037.00;;;4.71;100.00
49979;BME280;35869;50.990;6.962;2022-12-07T19:32:20;101035.34;;;4.67;100.00
49979;BME280;35869;50.990;6.962;2022-12-07T19:37:21;101027.69;;;4.63;100.00
49979;BME280;35869;50.990;6.962;2022-12-07T19:42:21;101013.91;;;4.67;100.00
49979;BME280;35869;50.990;6.962;2022-12-07T19:47:22;101022.47;;;4.67;100.00
49979;BME280;35869;50.990;6.962;2022-12-07T19:52:22;101019.91;;;4.67;100.00
49979;BME280;35869;50.990;6.962;2022-12-07T19:57:22;101015.56;;;4.71;100.00
49979;BME280;35869;50.990;6.962;2022-12-07T20:02:22;101023.22;;;4.75;100.00
49979;BME280;35869;50.990;6.962;2022-12-07T20:07:22;101014.72;;;4.70;100.00
49979;BME280;35869;50.990;6.962;2022-12-07T20:12:23;101003.63;;;4.65;100.00
49979;BME280;35869;50.990;6.962;2022-12-07T20:17:23;101011.38;;;4.64;100.00
49979;BME280;35869;50.990;6.962;2022-12-07T20:22:23;100999.44;;;4.60;100.00
49979;BME280;35869;50.990;6.962;2022-12-07T20:27:23;101005.38;;;4.65;100.00
49979;BME280;35869;50.990;6.962;2022-12-07T20:32:24;101007.19;;;4.58;100.00
49979;BME280;35869;50.990;6.962;2022-12-07T20:37:24;101001.31;;;4.48;100.00
49979;BME280;35869;50.990;6.962;2022-12-07T20:42:24;100997.84;;;4.49;100.00
49979;BME280;35869;50.990;6.962;2022-12-07T20:47:24;100993.63;;;4.47;100.00
49979;BME280;35869;50.990;6.962;2022-12-07T20:52:25;100995.44;;;4.39;100.00
49979;BME280;35869;50.990;6.962;2022-12-07T20:57:25;100989.47;;;4.37;100.00
49979;BME280;35869;50.990;6.962;2022-12-07T21:02:33;100992.09;;;4.32;100.00
49979;BME280;35869;50.990;6.962;2022-12-07T21:07:52;100987.00;;;4.27;100.00
49979;BME280;35869;50.990;6.962;2022-12-07T21:12:52;100974.16;;;4.29;100.00
49979;BME280;35869;50.990;6.962;2022-12-07T21:17:55;100971.63;;;4.24;100.00
49979;BME280;35869;50.990;6.962;2022-12-07T21:22:55;100974.28;;;4.20;100.00
49979;BME280;35869;50.990;6.962;2022-12-07T21:27:56;100976.81;;;4.23;100.00
49979;BME280;35869;50.990;6.962;2022-12-07T21:33:01;100977.72;;;4.19;100.00
49979;BME280;35869;50.990;6.962;2022-12-07T21:38:05;100976.06;;;4.16;100.00
49979;BME280;35869;50.990;6.962;2022-12-07T21:43:34;100960.66;;;4.13;100.00
49979;BME280;35869;50.990;6.962;2022-12-07T21:48:35;100953.78;;;4.14;100.00
49979;BME280;35869;50.990;6.962;2022-12-07T21:53:36;100950.34;;;4.16;100.00
49979;BME280;35869;50.990;6.962;2022-12-07T21:58:36;100942.66;;;4.10;100.00
49979;BME280;35869;50.990;6.962;2022-12-07T22:03:37;100938.34;;;4.14;100.00
49979;BME280;35869;50.990;6.962;2022-12-07T22:08:37;100946.97;;;4.11;100.00
49979;BME280;35869;50.990;6.962;2022-12-07T22:13:38;100954.69;;;4.11;100.00
49979;BME280;35869;50.990;6.962;2022-12-07T22:18:38;100945.28;;;4.09;100.00
49979;BME280;35869;50.990;6.962;2022-12-07T22:23:39;100941.03;;;4.06;100.00
49979;BME280;35869;50.990;6.962;2022-12-07T22:28:40;100941.03;;;4.06;100.00
49979;BME280;35869;50.990;6.962;2022-12-07T22:33:40;100941.81;;;4.10;100.00
49979;BME280;35869;50.990;6.962;2022-12-07T22:38:41;100942.75;;;4.04;100.00
49979;BME280;35869;50.990;6.962;2022-12-07T22:43:42;100924.75;;;4.06;100.00
49979;BME280;35869;50.990;6.962;2022-12-07T22:48:42;100924.75;;;4.06;100.00
49979;BME280;35869;50.990;6.962;2022-12-07T22:53:42;100917.91;;;4.05;100.00
49979;BME280;35869;50.990;6.962;2022-12-07T22:58:43;100911.09;;;4.00;100.00
49979;BME280;35869;50.990;6.962;2022-12-07T23:03:44;100898.25;;;4.00;100.00
49979;BME280;35869;50.990;6.962;2022-12-07T23:08:44;100905.13;;;4.00;100.00
49979;BME280;35869;50.990;6.962;2022-12-07T23:13:45;100897.41;;;4.00;100.00
49979;BME280;35869;50.990;6.962;2022-12-07T23:18:45;100900.09;;;3.91;100.00
49979;BME280;35869;50.990;6.962;2022-12-07T23:23:45;100892.28;;;3.97;100.00
49979;BME280;35869;50.990;6.962;2022-12-07T23:28:45;100888.09;;;3.93;100.00
49979;BME280;35869;50.990;6.962;2022-12-07T23:33:46;100879.50;;;3.92;100.00
49979;BME280;35869;50.990;6.962;2022-12-07T23:38:48;100872.75;;;3.85;100.00
49979;BME280;35869;50.990;6.962;2022-12-07T23:43:49;100869.31;;;3.88;100.00
49979;BME280;35869;50.990;6.962;2022-12-07T23:48:54;100864.16;;;3.88;100.00
49979;BME280;35869;50.990;6.962;2022-12-07T23:53:54;100849.38;;;4.00;100.00
49979;BME280;35869;50.990;6.962;2022-12-07T23:58:56;100847.78;;;3.93;100.00
